Arnot Power Station Airport


Codes: FAAP/
Name: Arnot Power Station Airport
City: Arnot Power Station
Country: South Africa
Elevation: 5594 ft.

Photos at Arnot Power Station Airport


   Photos courtesy of SpottingLog. You can add your own sightings and photos by signing up for a free trial today.



No photos found.

Weather at Arnot Power Station Airport


Time (UTC)DescriptionTempratureWindCloud coverageVisibilityPressureHumidity
21-Feb-2024 03:00Clear Sky14°C2 mph, N0%10000m1015hPa75%
21-Feb-2024 06:00Clear Sky17°C7 mph, W0%10000m1015hPa66%
21-Feb-2024 09:00Clear Sky25°C7 mph, W3%10000m1013hPa39%
21-Feb-2024 12:00Clear Sky35°C2 mph, SW3%10000m1008hPa11%
21-Feb-2024 15:00Few Clouds33°C7 mph, E20%10000m1006hPa13%
21-Feb-2024 18:00Scattered Clouds22°C13 mph, NE37%10000m1012hPa50%
21-Feb-2024 21:00Clear Sky19°C9 mph, NE3%10000m1013hPa62%
22-Feb-2024 00:00Clear Sky16°C2 mph, N9%10000m1013hPa75%
22-Feb-2024 03:00Clear Sky15°C4 mph, E1%10000m1015hPa80%
22-Feb-2024 06:00Clear Sky22°C7 mph, N6%10000m1013hPa50%
22-Feb-2024 09:00Clear Sky30°C9 mph, NW9%10000m1011hPa29%
22-Feb-2024 12:00Scattered Clouds31°C9 mph, W44%10000m1008hPa25%
22-Feb-2024 15:00Broken Clouds30°C7 mph, SW77%10000m1007hPa26%
22-Feb-2024 18:00Light Rain18°C13 mph, NE87%10000m1013hPa89%
22-Feb-2024 21:00Moderate Rain16°C9 mph, NE100%10000m1017hPa94%
23-Feb-2024 00:00Overcast Clouds15°C4 mph, N100%10000m1015hPa92%
23-Feb-2024 03:00Overcast Clouds15°C4 mph, NW100%10000m1015hPa91%
23-Feb-2024 06:00Overcast Clouds20°C2 mph, NE100%10000m1016hPa72%
23-Feb-2024 09:00Overcast Clouds29°C7 mph, W98%10000m1013hPa32%
23-Feb-2024 12:00Broken Clouds32°C11 mph, NW73%10000m1009hPa24%
23-Feb-2024 15:00Light Rain23°C11 mph, E42%10000m1012hPa57%
23-Feb-2024 18:00Moderate Rain15°C11 mph, E69%10000m1017hPa89%
23-Feb-2024 21:00Light Rain15°C7 mph, W99%10000m1018hPa87%
24-Feb-2024 00:00Overcast Clouds16°C2 mph, NW99%10000m1016hPa81%
24-Feb-2024 03:00Overcast Clouds16°C4 mph, N100%10000m1017hPa86%
24-Feb-2024 06:00Overcast Clouds21°C4 mph, N95%10000m1016hPa61%
24-Feb-2024 09:00Scattered Clouds30°C9 mph, NW41%10000m1014hPa30%
24-Feb-2024 12:00Scattered Clouds31°C11 mph, NW32%10000m1011hPa27%
24-Feb-2024 15:00Broken Clouds27°C11 mph, W58%10000m1010hPa38%
24-Feb-2024 18:00Light Rain17°C4 mph, SW78%10000m1017hPa83%
24-Feb-2024 21:00Light Rain17°C0 mph, E100%10000m1017hPa82%
25-Feb-2024 00:00Overcast Clouds17°C0 mph, NE99%10000m1015hPa81%
25-Feb-2024 03:00Light Rain16°C2 mph, S64%10000m1016hPa88%
25-Feb-2024 06:00Scattered Clouds21°C0 mph, NE41%10000m1016hPa68%
25-Feb-2024 09:00Clear Sky32°C2 mph, SW3%10000m1013hPa28%
25-Feb-2024 12:00Few Clouds31°C4 mph, W24%10000m1010hPa26%
25-Feb-2024 15:00Light Rain21°C11 mph, NE97%10000m1013hPa65%
25-Feb-2024 18:00Light Rain18°C13 mph, NE97%10000m1017hPa80%
25-Feb-2024 21:00Overcast Clouds17°C9 mph, SE91%10000m1018hPa87%
26-Feb-2024 00:00Overcast Clouds16°C11 mph, E95%10000m1019hPa89%